createdAt,value
2017-08-09T00:01:30.498Z,17.70
2017-08-09T00:03:59.708Z,17.80
2017-08-09T00:06:28.929Z,17.80
2017-08-09T00:08:57.350Z,17.80
2017-08-09T00:11:25.806Z,17.80
2017-08-09T00:13:54.221Z,17.90
2017-08-09T00:16:23.414Z,17.90
2017-08-09T00:18:52.154Z,17.90
2017-08-09T00:21:20.560Z,17.90
2017-08-09T00:23:49.003Z,17.90
2017-08-09T00:26:17.448Z,17.90
2017-08-09T00:28:46.814Z,17.90
2017-08-09T00:31:15.235Z,17.80
2017-08-09T00:33:44.473Z,17.80
2017-08-09T00:36:12.896Z,17.80
2017-08-09T00:38:41.528Z,17.80
2017-08-09T00:41:10.365Z,17.70
2017-08-09T00:43:38.799Z,17.70
2017-08-09T00:46:07.903Z,17.80
2017-08-09T00:48:36.362Z,17.70
2017-08-09T00:51:04.785Z,17.60
2017-08-09T00:53:33.225Z,17.60
2017-08-09T00:56:01.656Z,17.60
2017-08-09T00:58:30.836Z,17.50
2017-08-09T01:00:59.252Z,17.50
2017-08-09T01:03:27.698Z,17.50
2017-08-09T01:05:56.126Z,17.50
2017-08-09T01:08:24.563Z,17.50
2017-08-09T01:10:53.007Z,17.40
2017-08-09T01:13:21.424Z,17.40
2017-08-09T01:15:50.604Z,17.40
2017-08-09T01:18:19.020Z,17.40
2017-08-09T01:20:47.427Z,17.40
2017-08-09T01:23:15.893Z,17.40
2017-08-09T01:25:44.317Z,17.40
2017-08-09T01:28:12.741Z,17.40
2017-08-09T01:30:41.176Z,17.40
2017-08-09T01:33:09.600Z,17.30
2017-08-09T01:35:38.032Z,17.30
2017-08-09T01:38:06.465Z,17.30
2017-08-09T01:40:36.332Z,17.20
2017-08-09T01:43:04.759Z,17.20
2017-08-09T01:45:33.173Z,17.20
2017-08-09T01:48:01.655Z,17.20
2017-08-09T01:50:30.065Z,17.20
2017-08-09T01:52:59.248Z,17.20
2017-08-09T01:55:27.679Z,17.10
2017-08-09T01:57:56.089Z,17.10
2017-08-09T02:00:23.837Z,17.10
2017-08-09T02:02:52.241Z,17.10
2017-08-09T02:05:20.681Z,17.10
2017-08-09T02:07:49.158Z,17.00
2017-08-09T02:10:17.572Z,17.00
2017-08-09T02:12:46.004Z,17.00
2017-08-09T02:15:14.512Z,17.00
2017-08-09T02:17:42.949Z,16.90
2017-08-09T02:20:11.801Z,16.80
2017-08-09T02:22:40.951Z,16.80
2017-08-09T02:25:09.433Z,16.80
2017-08-09T02:27:37.856Z,16.80
2017-08-09T02:30:06.276Z,16.80
2017-08-09T02:32:35.471Z,16.80
2017-08-09T02:35:04.598Z,16.80
2017-08-09T02:37:33.043Z,16.80
2017-08-09T02:40:01.466Z,16.80
2017-08-09T02:42:29.889Z,16.80
2017-08-09T02:44:59.078Z,16.80
2017-08-09T02:47:28.155Z,16.90
2017-08-09T02:49:56.594Z,17.00
2017-08-09T02:52:25.028Z,16.90
2017-08-09T02:54:53.443Z,16.90
2017-08-09T02:57:21.881Z,16.80
2017-08-09T02:59:50.324Z,16.80
2017-08-09T03:02:18.784Z,16.80
2017-08-09T03:04:47.208Z,16.80
2017-08-09T03:07:15.620Z,16.80
2017-08-09T03:09:44.814Z,16.80
2017-08-09T03:12:14.007Z,16.80
2017-08-09T03:14:43.218Z,16.70
2017-08-09T03:17:12.406Z,16.70
2017-08-09T03:19:41.589Z,16.60
2017-08-09T03:22:10.013Z,16.60
2017-08-09T03:24:38.437Z,16.60
2017-08-09T03:27:06.889Z,16.60
2017-08-09T03:29:35.314Z,16.60
2017-08-09T03:32:04.480Z,16.60
2017-08-09T03:34:33.034Z,16.50
2017-08-09T03:37:01.446Z,16.60
2017-08-09T03:39:29.894Z,16.60
2017-08-09T03:41:58.314Z,16.60
2017-08-09T03:44:26.721Z,16.60
2017-08-09T03:46:55.916Z,16.60
2017-08-09T03:49:25.103Z,16.60
2017-08-09T03:51:54.321Z,16.50
2017-08-09T03:54:22.745Z,16.50
2017-08-09T03:56:51.157Z,16.50
2017-08-09T03:59:20.353Z,16.60
2017-08-09T04:01:49.550Z,16.60
2017-08-09T04:04:18.671Z,16.60
2017-08-09T04:06:47.084Z,16.60
2017-08-09T04:09:15.500Z,16.60
2017-08-09T04:11:44.697Z,16.50
2017-08-09T04:14:13.893Z,16.50
2017-08-09T04:16:42.948Z,16.50
2017-08-09T04:19:12.082Z,16.50
2017-08-09T04:21:41.276Z,16.60
2017-08-09T04:24:09.701Z,16.60
2017-08-09T04:26:38.131Z,16.60
2017-08-09T04:29:07.361Z,16.70
2017-08-09T04:31:35.776Z,16.70
2017-08-09T04:34:04.224Z,16.70
2017-08-09T04:36:32.678Z,16.80
2017-08-09T04:39:01.857Z,16.80
2017-08-09T04:41:30.281Z,16.80
2017-08-09T04:43:58.717Z,16.80
2017-08-09T04:46:27.121Z,16.80
2017-08-09T04:48:55.544Z,16.70
2017-08-09T04:51:23.963Z,16.70
2017-08-09T04:53:53.168Z,16.60
2017-08-09T04:56:22.353Z,16.60
2017-08-09T04:58:51.534Z,16.60
2017-08-09T05:01:19.959Z,16.60
2017-08-09T05:03:48.381Z,16.70
2017-08-09T05:06:16.825Z,16.70
2017-08-09T05:08:45.250Z,16.80
2017-08-09T05:11:13.664Z,16.80
2017-08-09T05:13:42.103Z,16.80
2017-08-09T05:16:10.527Z,16.80
2017-08-09T05:18:38.977Z,16.80
2017-08-09T05:21:07.393Z,16.80
2017-08-09T05:23:35.818Z,16.80
2017-08-09T05:26:04.252Z,16.80
2017-08-09T05:28:32.663Z,16.70
2017-08-09T05:31:01.130Z,16.70
2017-08-09T05:33:29.211Z,16.70
2017-08-09T05:35:57.625Z,16.70
2017-08-09T05:38:27.280Z,16.70
2017-08-09T05:40:55.696Z,16.80
2017-08-09T05:43:24.136Z,16.80
2017-08-09T05:45:52.552Z,16.80
2017-08-09T05:48:20.986Z,16.90
2017-08-09T05:50:49.460Z,16.90
2017-08-09T05:53:18.061Z,16.90
2017-08-09T05:55:46.575Z,16.90
2017-08-09T05:58:15.018Z,16.80
2017-08-09T06:00:43.103Z,16.90
2017-08-09T06:03:11.278Z,16.90
2017-08-09T06:05:39.692Z,16.90
2017-08-09T06:08:09.033Z,16.90
2017-08-09T06:10:37.534Z,16.90
2017-08-09T06:13:05.989Z,17.00
2017-08-09T06:15:34.471Z,17.10
2017-08-09T06:18:03.097Z,17.20
2017-08-09T06:20:31.602Z,17.40
2017-08-09T06:23:00.951Z,17.60
2017-08-09T06:25:29.362Z,17.60
2017-08-09T06:27:57.776Z,17.60
2017-08-09T06:30:26.193Z,17.70
2017-08-09T06:32:54.629Z,17.80
2017-08-09T06:35:23.732Z,17.80
2017-08-09T06:37:52.159Z,17.80
2017-08-09T06:40:20.588Z,17.90
2017-08-09T06:42:49.003Z,18.00
2017-08-09T06:45:17.449Z,17.90
2017-08-09T06:47:45.854Z,18.00
2017-08-09T06:50:14.257Z,18.10
2017-08-09T06:52:42.687Z,18.20
2017-08-09T06:55:11.096Z,18.30
2017-08-09T06:57:39.553Z,18.30
2017-08-09T07:00:07.972Z,18.80
2017-08-09T07:02:36.393Z,18.80
2017-08-09T07:05:04.843Z,18.70
2017-08-09T07:07:33.953Z,18.60
2017-08-09T07:10:03.167Z,18.50
2017-08-09T07:12:32.353Z,18.70
2017-08-09T07:15:01.529Z,18.80
2017-08-09T07:17:29.964Z,18.80
2017-08-09T07:19:58.384Z,18.90
2017-08-09T07:22:26.821Z,19.20
2017-08-09T07:24:55.241Z,19.60
2017-08-09T07:27:23.654Z,19.80
2017-08-09T07:29:52.088Z,19.70
2017-08-09T07:32:20.521Z,19.50
2017-08-09T07:34:48.984Z,19.60
2017-08-09T07:37:18.166Z,19.70
2017-08-09T07:39:46.570Z,19.70
2017-08-09T07:42:15.009Z,19.70
2017-08-09T07:44:43.428Z,19.60
2017-08-09T07:47:11.849Z,19.60
2017-08-09T07:49:40.278Z,19.80
2017-08-09T07:52:09.461Z,20.10
2017-08-09T07:54:38.648Z,20.20
2017-08-09T07:57:07.840Z,20.50
2017-08-09T07:59:36.262Z,20.50
2017-08-09T08:02:05.948Z,20.50
2017-08-09T08:04:35.151Z,20.30
2017-08-09T08:07:04.380Z,20.30
2017-08-09T08:09:33.477Z,20.30
2017-08-09T08:12:01.954Z,20.50
2017-08-09T08:14:30.360Z,20.40
2017-08-09T08:16:58.788Z,20.30
2017-08-09T08:19:27.324Z,20.40
2017-08-09T08:21:55.754Z,20.50
2017-08-09T08:24:24.252Z,20.60
2017-08-09T08:26:52.722Z,20.80
2017-08-09T08:29:21.174Z,20.90
2017-08-09T08:31:50.292Z,21.00
2017-08-09T08:34:18.713Z,21.00
2017-08-09T08:36:47.185Z,21.10
2017-08-09T08:39:16.322Z,21.20
2017-08-09T08:41:44.760Z,21.20
2017-08-09T08:44:13.889Z,21.30
2017-08-09T08:46:43.069Z,21.30
2017-08-09T08:49:11.524Z,21.30
2017-08-09T08:51:39.941Z,21.60
2017-08-09T08:54:09.154Z,22.20
2017-08-09T08:56:38.367Z,22.10
2017-08-09T08:59:08.246Z,21.70
2017-08-09T09:01:36.687Z,21.70
2017-08-09T09:04:05.109Z,21.40
2017-08-09T09:06:34.311Z,21.40
2017-08-09T09:09:03.173Z,21.90
2017-08-09T09:11:31.581Z,21.80
2017-08-09T09:14:00.785Z,21.50
2017-08-09T09:16:29.225Z,21.50
2017-08-09T09:18:57.636Z,21.20
2017-08-09T09:21:26.832Z,21.00
2017-08-09T09:23:56.011Z,21.20
2017-08-09T09:26:24.467Z,21.20
2017-08-09T09:28:52.871Z,21.10
2017-08-09T09:31:22.072Z,20.90
2017-08-09T09:33:50.506Z,20.90
2017-08-09T09:36:18.928Z,21.00
2017-08-09T09:38:48.146Z,20.60
2017-08-09T09:41:19.904Z,20.60
2017-08-09T09:43:48.476Z,20.40
2017-08-09T09:46:17.658Z,20.60
2017-08-09T09:48:46.095Z,20.60
2017-08-09T09:51:14.525Z,20.70
2017-08-09T09:53:43.701Z,22.60
2017-08-09T09:56:12.128Z,22.60
2017-08-09T09:58:40.548Z,23.70
2017-08-09T10:01:08.960Z,24.50
2017-08-09T10:03:38.155Z,24.40
2017-08-09T10:06:07.346Z,24.30
2017-08-09T10:08:35.785Z,24.30
2017-08-09T10:11:04.217Z,24.80
2017-08-09T10:13:32.641Z,25.00
2017-08-09T10:16:01.160Z,25.20
2017-08-09T10:18:29.563Z,25.30
2017-08-09T10:20:58.007Z,25.60
2017-08-09T10:23:27.107Z,25.70
2017-08-09T10:25:55.554Z,25.40
2017-08-09T10:28:23.973Z,24.80
2017-08-09T10:30:52.385Z,24.60
2017-08-09T10:33:20.853Z,24.80
2017-08-09T10:35:49.260Z,24.50
2017-08-09T10:38:17.669Z,24.20
2017-08-09T10:40:46.109Z,24.10
2017-08-09T10:43:14.518Z,24.00
2017-08-09T10:45:42.945Z,23.70
2017-08-09T10:48:11.385Z,23.50
2017-08-09T10:50:39.809Z,23.20
2017-08-09T10:53:08.249Z,23.10
2017-08-09T10:55:36.680Z,23.00
2017-08-09T10:58:05.094Z,23.00
2017-08-09T11:00:33.533Z,23.10
2017-08-09T11:03:01.957Z,23.00
2017-08-09T11:05:30.441Z,23.10
2017-08-09T11:07:58.875Z,23.50
2017-08-09T11:10:27.295Z,24.00
2017-08-09T11:12:55.723Z,24.40
2017-08-09T11:15:24.140Z,24.60
2017-08-09T11:17:52.558Z,24.80
2017-08-09T11:20:21.764Z,24.90
2017-08-09T11:22:50.953Z,24.90
2017-08-09T11:25:20.133Z,24.70
2017-08-09T11:27:48.548Z,24.70
2017-08-09T11:30:16.973Z,24.60
2017-08-09T11:32:45.405Z,24.10
2017-08-09T11:35:13.842Z,23.80
2017-08-09T11:37:42.273Z,23.70
2017-08-09T11:40:10.701Z,23.50
2017-08-09T11:42:39.133Z,23.40
2017-08-09T11:45:07.545Z,23.30
2017-08-09T11:47:35.996Z,23.30
2017-08-09T11:50:04.404Z,23.50
2017-08-09T11:52:33.509Z,23.80
2017-08-09T11:55:01.963Z,24.20
2017-08-09T11:57:30.362Z,24.40
2017-08-09T11:59:58.800Z,24.70
2017-08-09T12:02:27.218Z,24.90
2017-08-09T12:04:55.650Z,25.10
2017-08-09T12:07:24.088Z,25.20
2017-08-09T12:09:52.499Z,25.30
2017-08-09T12:12:20.932Z,25.20
2017-08-09T12:14:49.348Z,25.10
2017-08-09T12:17:18.538Z,24.80
2017-08-09T12:19:47.746Z,24.60
2017-08-09T12:22:16.246Z,24.60
2017-08-09T12:24:44.711Z,24.30
2017-08-09T12:27:13.139Z,24.00
2017-08-09T12:29:41.546Z,24.00
2017-08-09T12:32:10.008Z,24.00
2017-08-09T12:34:38.431Z,23.80
2017-08-09T12:37:06.919Z,23.60
2017-08-09T12:39:35.334Z,23.50
2017-08-09T12:42:03.748Z,23.40
2017-08-09T12:44:32.962Z,23.40
2017-08-09T12:47:01.386Z,23.40
2017-08-09T12:49:29.815Z,23.40
2017-08-09T12:51:58.238Z,23.40
2017-08-09T12:54:26.676Z,23.50
2017-08-09T12:56:55.112Z,23.60
2017-08-09T12:59:23.530Z,23.80
2017-08-09T13:01:51.968Z,23.90
2017-08-09T13:04:20.405Z,24.20
2017-08-09T13:06:48.829Z,24.40
2017-08-09T13:09:17.272Z,24.40
2017-08-09T13:11:45.753Z,24.30
2017-08-09T13:14:14.148Z,24.20
2017-08-09T13:16:42.584Z,24.10
2017-08-09T13:19:11.007Z,23.90
2017-08-09T13:21:39.440Z,23.80
2017-08-09T13:24:07.843Z,23.70
2017-08-09T13:26:36.289Z,23.60
2017-08-09T13:29:05.476Z,23.50
2017-08-09T13:31:34.696Z,23.50
2017-08-09T13:34:03.917Z,23.40
2017-08-09T13:36:32.342Z,23.40
2017-08-09T13:39:00.774Z,23.40
2017-08-09T13:41:29.201Z,23.40
2017-08-09T13:43:57.633Z,23.50
2017-08-09T13:46:26.089Z,23.80
2017-08-09T13:48:54.525Z,24.10
2017-08-09T13:51:23.072Z,24.40
2017-08-09T13:53:51.486Z,24.50
2017-08-09T13:56:19.926Z,24.50
2017-08-09T13:58:48.367Z,24.30
2017-08-09T14:01:17.583Z,24.40
2017-08-09T14:03:46.696Z,24.40
2017-08-09T14:06:15.108Z,24.50
2017-08-09T14:08:43.529Z,24.40
2017-08-09T14:11:11.976Z,24.20
2017-08-09T14:13:40.395Z,24.00
2017-08-09T14:16:08.858Z,24.10
2017-08-09T14:18:38.268Z,24.20
2017-08-09T14:21:07.445Z,24.20
2017-08-09T14:23:36.647Z,24.10
2017-08-09T14:26:05.822Z,24.00
2017-08-09T14:28:34.440Z,24.00
2017-08-09T14:31:02.876Z,24.00
2017-08-09T14:33:31.313Z,24.10
2017-08-09T14:35:59.746Z,24.20
2017-08-09T14:38:28.171Z,24.30
2017-08-09T14:40:56.782Z,24.20
2017-08-09T14:43:25.244Z,24.20
2017-08-09T14:45:53.682Z,24.20
2017-08-09T14:48:22.869Z,24.10
2017-08-09T14:50:51.351Z,24.10
2017-08-09T14:53:21.416Z,24.10
2017-08-09T14:55:49.852Z,24.10
2017-08-09T14:58:19.092Z,23.90
2017-08-09T15:00:47.526Z,23.90
2017-08-09T15:03:16.713Z,24.00
2017-08-09T15:05:45.161Z,23.90
2017-08-09T15:08:13.633Z,23.90
2017-08-09T15:10:42.113Z,24.00
2017-08-09T15:13:10.536Z,23.90
2017-08-09T15:15:39.736Z,24.10
2017-08-09T15:18:08.936Z,24.20
2017-08-09T15:20:38.083Z,24.10
2017-08-09T15:23:06.741Z,24.20
2017-08-09T15:25:35.210Z,24.20
2017-08-09T15:28:03.701Z,24.20
2017-08-09T15:30:32.154Z,24.20
2017-08-09T15:33:00.588Z,24.10
2017-08-09T15:35:29.236Z,24.10
2017-08-09T15:37:57.819Z,24.10
2017-08-09T15:40:26.340Z,24.10
2017-08-09T15:42:54.785Z,24.10
2017-08-09T15:45:23.222Z,24.20
2017-08-09T15:47:51.712Z,24.10
2017-08-09T15:50:21.236Z,24.10
2017-08-09T15:52:49.782Z,24.10
2017-08-09T15:55:19.016Z,24.00
2017-08-09T15:57:47.482Z,24.00
2017-08-09T16:00:15.981Z,24.00
2017-08-09T16:02:49.042Z,24.10
2017-08-09T16:05:17.754Z,24.10
2017-08-09T16:07:46.500Z,24.00
2017-08-09T16:10:14.969Z,23.90
2017-08-09T16:12:43.705Z,23.80
2017-08-09T16:15:12.201Z,23.80
2017-08-09T16:17:41.385Z,23.80
2017-08-09T16:20:09.852Z,23.80
2017-08-09T16:22:38.274Z,23.90
2017-08-09T16:25:06.798Z,23.90
2017-08-09T16:27:35.665Z,23.80
2017-08-09T16:30:03.798Z,23.90
2017-08-09T16:32:32.279Z,23.80
2017-08-09T16:35:00.803Z,23.90
2017-08-09T16:37:29.478Z,23.80
2017-08-09T16:39:58.098Z,23.80
2017-08-09T16:42:26.923Z,23.70
2017-08-09T16:44:55.361Z,23.70
2017-08-09T16:47:24.231Z,23.60
2017-08-09T16:49:52.733Z,23.60
2017-08-09T16:52:21.389Z,23.60
2017-08-09T16:54:49.998Z,23.50
2017-08-09T16:57:19.492Z,23.40
2017-08-09T16:59:48.750Z,23.30
2017-08-09T17:02:17.344Z,23.30
2017-08-09T17:04:46.549Z,23.30
2017-08-09T17:07:15.413Z,23.30
2017-08-09T17:09:43.932Z,23.30
2017-08-09T17:12:13.303Z,23.20
2017-08-09T17:14:41.716Z,23.10
2017-08-09T17:17:10.952Z,23.10
2017-08-09T17:19:39.487Z,23.00
2017-08-09T17:22:08.716Z,23.00
2017-08-09T17:24:37.185Z,23.00
2017-08-09T17:27:05.601Z,22.90
2017-08-09T17:29:34.022Z,22.80
2017-08-09T17:32:03.399Z,22.80
2017-08-09T17:34:31.832Z,22.80
2017-08-09T17:37:00.285Z,22.90
2017-08-09T17:39:29.498Z,22.90
2017-08-09T17:41:57.930Z,22.90
2017-08-09T17:44:26.348Z,22.90
2017-08-09T17:46:55.565Z,22.80
2017-08-09T17:49:24.047Z,22.90
2017-08-09T17:51:52.475Z,22.80
2017-08-09T17:54:21.622Z,22.90
2017-08-09T17:56:50.130Z,22.90
2017-08-09T17:59:18.560Z,22.90
2017-08-09T18:01:47.764Z,22.80
2017-08-09T18:04:16.202Z,22.80
2017-08-09T18:06:44.613Z,22.80
2017-08-09T18:09:13.070Z,22.80
2017-08-09T18:11:41.485Z,22.80
2017-08-09T18:14:09.940Z,22.80
2017-08-09T18:16:39.031Z,22.70
2017-08-09T18:19:08.240Z,22.70
2017-08-09T18:21:37.426Z,22.70
2017-08-09T18:24:06.634Z,22.60
2017-08-09T18:26:35.049Z,22.60
2017-08-09T18:29:03.466Z,22.60
2017-08-09T18:31:31.919Z,22.50
2017-08-09T18:34:00.336Z,22.40
2017-08-09T18:36:29.509Z,22.30
2017-08-09T18:38:57.959Z,22.30
2017-08-09T18:41:27.206Z,22.30
2017-08-09T18:43:56.428Z,22.10
2017-08-09T18:46:24.895Z,22.10
2017-08-09T18:48:54.073Z,22.10
2017-08-09T18:51:22.489Z,22.00
2017-08-09T18:53:50.936Z,22.00
2017-08-09T18:56:20.120Z,21.90
2017-08-09T18:58:48.534Z,21.90
2017-08-09T19:01:17.026Z,21.90
2017-08-09T19:03:46.381Z,21.80
2017-08-09T19:06:15.433Z,21.80
2017-08-09T19:08:45.377Z,21.70
2017-08-09T19:11:13.806Z,21.70
2017-08-09T19:13:42.038Z,21.60
2017-08-09T19:16:10.506Z,21.60
2017-08-09T19:18:38.887Z,21.50
2017-08-09T19:21:07.422Z,21.50
2017-08-09T19:23:35.870Z,21.50
2017-08-09T19:26:05.091Z,21.50
2017-08-09T19:28:33.523Z,21.50
2017-08-09T19:31:01.975Z,21.50
2017-08-09T19:33:30.148Z,21.50
2017-08-09T19:35:58.568Z,21.50
2017-08-09T19:38:28.548Z,21.50
2017-08-09T19:40:56.970Z,21.50
2017-08-09T19:43:25.412Z,21.40
2017-08-09T19:45:53.869Z,21.40
2017-08-09T19:48:22.113Z,21.30
2017-08-09T19:50:51.289Z,21.30
2017-08-09T19:53:19.756Z,21.20
2017-08-09T19:55:48.180Z,21.20
2017-08-09T19:58:16.609Z,21.20
2017-08-09T20:00:45.094Z,21.20
2017-08-09T20:03:13.522Z,21.30
2017-08-09T20:05:41.931Z,21.20
2017-08-09T20:08:12.029Z,21.20
2017-08-09T20:10:40.481Z,21.20
2017-08-09T20:13:09.673Z,21.10
2017-08-09T20:15:38.904Z,21.10
2017-08-09T20:18:07.326Z,21.00
2017-08-09T20:20:36.034Z,21.00
2017-08-09T20:23:04.508Z,21.00
2017-08-09T20:25:32.941Z,21.00
2017-08-09T20:28:01.373Z,20.90
2017-08-09T20:30:29.825Z,20.90
2017-08-09T20:32:58.308Z,20.90
2017-08-09T20:35:26.720Z,20.90
2017-08-09T20:37:55.932Z,20.90
2017-08-09T20:40:25.151Z,20.90
2017-08-09T20:42:53.596Z,20.90
2017-08-09T20:45:22.857Z,20.80
2017-08-09T20:47:51.268Z,20.70
2017-08-09T20:50:20.498Z,20.70
2017-08-09T20:52:48.957Z,20.70
2017-08-09T20:55:18.152Z,20.60
2017-08-09T20:57:47.412Z,20.60
2017-08-09T21:00:16.038Z,20.50
2017-08-09T21:02:44.469Z,20.50
2017-08-09T21:05:12.917Z,20.50
2017-08-09T21:07:42.838Z,20.50
2017-08-09T21:10:11.949Z,20.50
2017-08-09T21:12:40.369Z,20.40
2017-08-09T21:15:09.567Z,20.30
2017-08-09T21:17:38.771Z,20.30
2017-08-09T21:20:07.315Z,20.30
2017-08-09T21:22:35.812Z,20.20
2017-08-09T21:25:04.282Z,20.20
2017-08-09T21:27:32.702Z,20.20
2017-08-09T21:30:01.148Z,20.10
2017-08-09T21:32:29.671Z,20.10
2017-08-09T21:34:58.085Z,20.00
2017-08-09T21:37:26.568Z,20.00
2017-08-09T21:39:54.988Z,19.90
2017-08-09T21:42:24.182Z,19.90
2017-08-09T21:44:53.392Z,19.90
2017-08-09T21:47:21.874Z,19.90
2017-08-09T21:49:50.324Z,19.90
2017-08-09T21:52:19.537Z,19.90
2017-08-09T21:54:47.970Z,19.80
2017-08-09T21:57:16.389Z,19.80
2017-08-09T21:59:45.674Z,19.80
2017-08-09T22:02:14.878Z,19.90
2017-08-09T22:04:44.100Z,19.90
2017-08-09T22:07:13.980Z,19.90
2017-08-09T22:09:43.208Z,19.90
2017-08-09T22:12:11.663Z,20.00
2017-08-09T22:14:40.895Z,20.00
2017-08-09T22:17:09.348Z,20.00
2017-08-09T22:19:37.854Z,20.00
2017-08-09T22:22:06.372Z,20.00
2017-08-09T22:24:35.552Z,20.10
2017-08-09T22:27:03.980Z,20.10
2017-08-09T22:29:33.210Z,20.10
2017-08-09T22:32:03.080Z,20.10
2017-08-09T22:34:32.258Z,20.10
2017-08-09T22:37:00.765Z,20.10
2017-08-09T22:39:30.079Z,20.10
2017-08-09T22:41:58.536Z,20.10
2017-08-09T22:44:26.975Z,20.10
2017-08-09T22:46:55.427Z,20.20
2017-08-09T22:49:23.874Z,20.20
2017-08-09T22:51:53.054Z,20.20
2017-08-09T22:54:21.484Z,20.20
2017-08-09T22:56:49.929Z,20.20
2017-08-09T22:59:19.121Z,20.20
2017-08-09T23:01:48.294Z,20.10
2017-08-09T23:04:16.747Z,20.10
2017-08-09T23:06:45.187Z,20.10
2017-08-09T23:09:14.364Z,20.10
2017-08-09T23:11:42.815Z,20.10
2017-08-09T23:14:11.228Z,20.10
2017-08-09T23:16:40.408Z,20.10
2017-08-09T23:19:08.837Z,20.00
2017-08-09T23:21:37.250Z,20.00
2017-08-09T23:24:05.666Z,20.00
2017-08-09T23:26:34.866Z,20.00
2017-08-09T23:29:04.036Z,20.00
2017-08-09T23:31:32.468Z,20.00
2017-08-09T23:34:00.914Z,19.90
2017-08-09T23:36:30.090Z,19.90
2017-08-09T23:38:58.506Z,19.90
2017-08-09T23:41:26.958Z,19.90
2017-08-09T23:43:55.331Z,19.80
2017-08-09T23:46:23.748Z,19.80
2017-08-09T23:48:52.189Z,19.70
2017-08-09T23:51:20.602Z,19.70
2017-08-09T23:53:49.005Z,19.60
2017-08-09T23:56:17.457Z,19.50
2017-08-09T23:58:46.632Z,19.30
